Charles Town, WV (25414)

01:28 PM EST die 23o February, anno 2017 (GMT -0500)
American Public University System WeatherSTEM | | Change Station

Elev 511 ft 39.29 °N, 77.86 °W | Updated 3 minutes ago

Partialiter Nubila
Partialiter Nubila
77.5 °F
Feels Like 79 °F
N
5.0
Ventus Variabilis Ventus from Inter Austrum et Zephyrum

Hodie
High -- | Low -- °F
--% Chance of Precip.
Yesterday
High -- | Low -- °F
Precip. -- in
Pressio 29.79 in
Visibilitas 10.0 milia passuum
Clouds Few 5000 ft
Index Caloris 79 °F
Frigus in quo Ros apparet 52 °F
Umor 41%
Rainfall 0.00 in
Snow Depth Not available.
6:52 AM 5:57 PM
Waning Crescent, 9% visible
METAR KMRB 231753Z 21005KT 10SM FEW050 24/10 A2980 RMK AO2 SLP088 T02390100 10244 20072 58025
Pressio 29.79 in
Visibilitas 10.0 milia passuum
Clouds Few 5000 ft
Index Caloris 79 °F
Frigus in quo Ros apparet 52 °F
Umor 41%
Rainfall 0.00 in
Snow Depth Not available.
6:52 AM 5:57 PM
Waning Crescent, 9% visible
METAR KMRB 231753Z 21005KT 10SM FEW050 24/10 A2980 RMK AO2 SLP088 T02390100 10244 20072 58025

Get Your Daily Forecast Email!

Thanks for signing up!

Be on the lookout for a verification email in your inbox.

You'll start receiving the daily forecast at 8 AM.

×

10-Day Weather Forecast

Almanac

Astronomy

Feb. 23, 2017 Rise Set
Actual Time
Civil Twilight
Nautical Twilight
Astronomical Twilight
Moon
Length Of Visible Light
Length of Day
Tomorrow will be .
, % of the Moon is Illuminated

Today's Extremes

State Highs State Lows

Community

WunderPhotos

Upload Photos

1,962,540 photos uploaded!

WunderBlog® & News

Nearby

Air Quality

  Air Quality AQ Index Pollutant
Not available.

Snow Depth

Station Depth Elevation

Earthquake Activity

City Distance Mag. Time & Date
Minimum magnitude displayed is 2.5.

Coastal Water Temperatures

Locus Calor

Stations

Nearby Weather Stations

Station Location Temp Frigus Venti Frigus in quo Ros apparet Umor Ventus Precip. Elev Renovata Type
                   

Watches & Warnings

There are currently no watches in effect.